Aviation Digital Data Service (ADDS)

Output produced by METARs form (2230 UTC 09 February 2016)
found at http://www.aviationweather.gov/adds/metars/
 
KTHV 092212Z AUTO 00000KT 1SM -SN BR FEW003 OVC012 00/M02 A2957 RMK AO2 P0001 T00001017
KTHV 092156Z AUTO 00000KT 3/4SM -SN BR FEW003 BKN011 OVC016 M01/M02 A2956 RMK AO2 P0000 T10061017
KTHV 092153Z AUTO 00000KT 1SM -SN BR FEW003 BKN016 OVC024 M01/M02 A2956 RMK AO2 SLP018 P0004 T10061017
KTHV 092148Z AUTO 00000KT 1SM -SN BR FEW003 BKN014 OVC019 00/M02 A2956 RMK AO2 P0004
KTHV 092144Z AUTO 00000KT 3/4SM -SN BR FEW003 SCT008 OVC018 00/M02 A2956 RMK AO2 P0004 T00001017
KTHV 092133Z AUTO 00000KT 3/4SM -SN BR BKN006 BKN021 OVC025 00/M01 A2956 RMK AO2 P0004 T00001011
KTHV 092129Z AUTO 00000KT 1SM -SN BR FEW004 BKN008 OVC025 00/M01 A2955 RMK AO2 P0003 T00001011
KTHV 092116Z AUTO 00000KT 1SM -SN BR BKN006 OVC015 00/M01 A2955 RMK AO2 P0002 T00001011
KTHV 092114Z AUTO 00000KT 3/4SM -SN BR SCT004 OVC015 00/M01 A2955 RMK AO2 P0002 T00001011
KTHV 092103Z AUTO 00000KT 1/2SM SN FG SCT004 OVC013 00/M01 A2955 RMK AO2 P0001 T00001011
KTHV 092053Z AUTO 00000KT 1/2SM SN FZFG FEW007 OVC015 M01/M01 A2954 RMK AO2 SLP011 P0005 60012 T10061011 53005
KTHV 092012Z AUTO 00000KT 3/4SM -SN BR FEW005 BKN019 OVC030 00/M01 A2954 RMK AO2 P0002 T00001011
KTHV 092003Z AUTO 00000KT 3/4SM -SN BR BKN005 OVC019 00/M01 A2953 RMK AO2 P0001 T00001011
KTHV 091953Z AUTO 00000KT 3/4SM -SN BR BKN006 OVC019 00/M01 A2953 RMK AO2 SLP007 P0005 T00001011
KTHV 091901Z AUTO 36003KT 1/2SM SN FG OVC006 00/M02 A2953 RMK AO2 CIG 003V009 P0001 T00001017
KTHV 091853Z AUTO 36003KT 3/4SM -SN BR OVC004 00/M02 A2953 RMK AO2 CIG 003V008 SLP007 P0002 T00001017
KTHV 091850Z AUTO 36004KT 1/2SM -SN FG OVC004 00/M02 A2953 RMK AO2 CIG 003V008 P0002
KTHV 091753Z AUTO 36005KT 1/2SM SN FZFG BKN005 OVC014 M01/M02 A2953 RMK AO2 SLP008 P0003 60005 T10061017 10000 21006 56013
KTHV 091748Z AUTO 01005KT 3/4SM -SN BR BKN007 OVC014 00/M02 A2954 RMK AO2 P0002
KTHV 091738Z AUTO 01005KT 3/4SM -SN BR SCT007 OVC014 00/M02 A2954 RMK AO2 P0002 T00001017
KTHV 091714Z AUTO 35004KT 1/2SM SN FG BKN007 OVC010 00/M02 A2955 RMK AO2 P0001 T00001017
KTHV 091702Z AUTO 36005KT 1/2SM SN FZFG OVC005 M01/M02 A2955 RMK AO2 P0001 T10061017
KTHV 091653Z AUTO 36004KT 3/4SM -SN BR OVC004 M01/M02 A2956 RMK AO2 SLP015 P0002 T10061017
KTHV 091639Z AUTO 01003KT 1/2SM SN FZFG BKN004 OVC008 M01/M02 A2956 RMK AO2 P0002 T10061017
KTHV 091630Z AUTO 02003KT 1/2SM SN FG SCT004 OVC008 00/M01 A2957 RMK AO2 P0001 T00001011
KTHV 091623Z AUTO 00000KT 1/4SM SN FG VV006 00/M01 A2957 RMK AO2 P0001 T00001011
KTHV 091616Z AUTO VRB03KT 1/4SM SN FG FEW003 OVC008 00/M01 A2957 RMK AO2 P0001 T00001011
KTHV 091553Z AUTO 05005KT 1/2SM SN FZFG VV007 M01/M02 A2957 RMK AO2 SLP021 P0000 T10061017
KTHV 091513Z AUTO 04005KT 1/4SM SN FZFG BKN006 OVC012 M01/M02 A2958 RMK AO2 P0000 T10061017
KTHV 091453Z AUTO 05005KT 1/4SM +SN FZFG VV005 M01/M01 A2958 RMK AO2 SLP023 P0000 60000 T10061011 50001
KTHV 091353Z AUTO 08005KT 1/4SM +SN FZFG VV005 M01/M01 A2959 RMK AO2 SLP026 P0000 T10061011
KTHV 091337Z AUTO 06004KT 1/4SM +SN FZFG OVC004 M01/M01 A2959 RMK AO2 P0000 T10061011
KTHV 091323Z AUTO 07003KT 1/4SM +SN FZFG OVC005 M01/M01 A2959 RMK AO2 P0000 T10061011
KTHV 091307Z AUTO 00000KT 1/4SM +SN FZFG FEW003 OVC007 M01/M01 A2958 RMK AO2 P0000 T10061011
KTHV 091253Z AUTO 09004KT 1/4SM +SN FZFG VV009 M01/M01 A2958 RMK AO2 SLP023 P0000 T10061011
KTHV 091237Z AUTO 09005KT 1/2SM SN FZFG FEW006 OVC013 M01/M01 A2958 RMK AO2 P0000 T10061011
KTHV 091223Z AUTO 08005KT 3/4SM -SN BR FEW004 SCT009 OVC016 M01/M01 A2958 RMK AO2 P0000 T10061011
KTHV 091217Z AUTO 09005KT 1 1/4SM -SN BR FEW004 SCT013 OVC018 M01/M01 A2958 RMK AO2 P0000 T10061011
KTHV 091208Z AUTO 10007KT 1 1/4SM -SN BR FEW006 BKN010 OVC024 M01/M02 A2957 RMK AO2 P0000 T10061017
KTHV 091155Z AUTO 09007KT 1 3/4SM -SN BR BKN008 OVC013 M01/M01 A2958 RMK AO2 P0000 T10061011
KTHV 091153Z AUTO 09007KT 2SM -SN BR BKN007 OVC013 M01/M01 A2958 RMK AO2 SLP021 P0000 60001 70008 T10061011 10011 21006 51003
KTHV 091150Z AUTO 09006KT 2SM -SN BR BKN007 OVC013 M01/M02 A2958 RMK AO2 P0000
KTHV 091124Z AUTO 10006KT 1 3/4SM -SN BR OVC006 00/M01 A2957 RMK AO2 CIG 005V011 P0000 T00001011
KTHV 091112Z AUTO 10008KT 2 1/2SM -SN BR OVC006 00/M01 A2957 RMK AO2 CIG 004V011 P0000 T00001011
KTHV 091053Z AUTO 10008KT 4SM -SN BR OVC006 00/M01 A2957 RMK AO2 UPB14E17SNE0959B17 CIG 004V008 SLP019 P0000 T00001011
KTHV 091046Z AUTO 09008KT 4SM -SN BR OVC006 00/M01 A2957 RMK AO2 UPB14E17SNE0959B17 CIG 004V008 P0000 T00001011
KTHV 090953Z AUTO 09008KT 5SM -SN BR OVC004 00/M01 A2957 RMK AO2 SNB41 SLP018 P0000 T00001011
KTHV 090949Z AUTO 10008KT 5SM -SN BR OVC004 00/M01 A2957 RMK AO2 SNB41 P0000
KTHV 090853Z AUTO 11006KT 9SM OVC005 01/M01 A2957 RMK AO2 UPB20E25SNE20 SLP019 P0001 60001 T00061006 58018
KTHV 090830Z AUTO 11006KT 7SM OVC005 01/M01 A2958 RMK AO2 UPB20E25SNE20 P0001 T00061006
KTHV 090753Z AUTO 11006KT 6SM -SN BR OVC006 01/M01 A2959 RMK AO2 SNB43 SLP026 P0000 T00061006
KTHV 090724Z AUTO 13006KT 10SM OVC007 01/M01 A2960 RMK AO2 T00061006
KTHV 090653Z AUTO 12007KT 10SM OVC009 01/M01 A2961 RMK AO2 SNE32 SLP032 P0000 T00111006
KTHV 090616Z AUTO 12006KT 3SM -SN BR OVC008 01/00 A2962 RMK AO2 CIG 006V013 P0000 T00060000
KTHV 090553Z AUTO 11004KT 2 1/2SM -SN BR OVC008 01/00 A2962 RMK AO2 UPB22E29SNE22B29 CIG 006V013 SLP037 P0002 60007 T00060000 10033 20006 56012
KTHV 090529Z AUTO 11004KT 2 1/2SM -SN BR OVC006 01/00 A2963 RMK AO2 UPB22E29SNE22B29 P0001 T00060000
KTHV 090510Z AUTO 09003KT 2SM -SN BR OVC006 01/00 A2964 RMK AO2 P0000 T00060000
KTHV 090453Z AUTO 10003KT 1 3/4SM -SN BR OVC006 01/00 A2964 RMK AO2 UPE06SNB06 SLP043 P0003 T00060000 400671067
KTHV 090449Z AUTO 11003KT 1 3/4SM -SN BR OVC006 01/00 A2964 RMK AO2 UPE06SNB06 P0003
KTHV 090436Z AUTO 10004KT 2SM -SN BR OVC007 01/00 A2964 RMK AO2 UPE06SNB06 P0002 T00060000
KTHV 090429Z AUTO 11004KT 2 1/2SM -SN BR OVC007 01/00 A2965 RMK AO2 UPE06SNB06 P0002 T00060000
KTHV 090417Z AUTO 10004KT 2 1/2SM -SN BR OVC008 01/00 A2965 RMK AO2 UPE06SNB06 CIG 006V012 P0001 T00110000
KTHV 090353Z AUTO 11004KT 4SM UP BR OVC008 01/00 A2966 RMK AO2 RAB0258E51UPB51 SLP049 P0001 T00110000
KTHV 090341Z AUTO 10005KT 3SM -RA BR OVC008 01/01 A2966 RMK AO2 RAB0258 P0001 T00110006
KTHV 090253Z AUTO 11005KT 6SM BR OVC011 02/01 A2968 RMK AO2 RAE53UPB34E41 SLP056 P0001 60001 T00170006 58001
KTHV 090222Z AUTO 12005KT 7SM -RA OVC013 02/01 A2968 RMK AO2 P0001 T00170006
KTHV 090153Z AUTO 13005KT 8SM -RA BKN016 OVC026 02/00 A2969 RMK AO2 UPB07E12B48E51RAB12 SLP059 P0000 T00220000
KTHV 090137Z AUTO 14008KT 8SM -RA FEW014 BKN024 OVC035 02/00 A2969 RMK AO2 UPB07E12RAB12 P0000 T00220000
KTHV 090053Z AUTO VRB06KT 10SM OVC047 03/M01 A2969 RMK AO2 SLP061 T00281011
KTHV 082353Z AUTO 14009KT 10SM BKN055 BKN070 OVC090 03/M01 A2968 RMK AO2 RAB2254E06 SLP058 P0000 60000 T00331011 10067 20033 53004
KTHV 082253Z AUTO 08003KT 10SM OVC040 04/M02 A2968 RMK AO2 SLP056 T00391017
KTHV 082153Z AUTO 02004KT 10SM OVC046 04/M02 A2967 RMK AO2 SLP052 T00441022
KTHV 082053Z AUTO 10SM OVC042 06/M03 A2967 RMK AO2 SLP052 T00611028 56008
KTHV 081953Z AUTO 25003KT 10SM BKN040 06/M02 A2967 RMK AO2 SLP053 T00611022
KTHV 081853Z AUTO 10005KT 10SM BKN037 06/M03 A2968 RMK AO2 SLP056 T00611028
KTHV 081753Z AUTO 06006KT 10SM 06/M02 A2969 RMK AO2 SLP061 T00611022 10061 21067 $
KTHV 081653Z AUTO 05006KT 10SM CLR 05/M03 A2974 RMK AO2 SLP077 T00501028
KTHV 081553Z AUTO 08007KT 10SM CLR 04/M02 A2977 RMK AO2 SLP088 T00441022
KTHV 081453Z AUTO 09006KT 10SM CLR 03/M04 A2979 RMK AO2 SLP096 T00281039 58004
KTHV 081353Z AUTO 00000KT 8SM CLR M01/M04 A2981 RMK AO2 SLP102 T10111044
KTHV 081253Z AUTO 00000KT 5SM BR CLR M06/M07 A2981 RMK AO2 SLP103 T10561072
KTHV 081153Z AUTO 00000KT 8SM CLR M06/M08 A2980 RMK AO2 SLP101 T10561078 11022 21067 53013
KTHV 081053Z AUTO 00000KT 8SM CLR M04/M07 A2979 RMK AO2 SLP094 T10441067